createdAt,value
2019-04-06T00:02:16.597Z,59.47
2019-04-06T00:04:45.056Z,50.90
2019-04-06T00:07:13.502Z,55.57
2019-04-06T00:09:41.950Z,54.30
2019-04-06T00:12:10.404Z,56.07
2019-04-06T00:14:38.868Z,53.00
2019-04-06T00:17:07.336Z,50.63
2019-04-06T00:19:35.811Z,48.50
2019-04-06T00:22:04.421Z,49.93
2019-04-06T00:24:32.882Z,48.03
2019-04-06T00:27:01.611Z,49.57
2019-04-06T00:29:30.065Z,48.13
2019-04-06T00:32:00.171Z,47.00
2019-04-06T00:34:28.710Z,46.77
2019-04-06T00:36:57.178Z,46.93
2019-04-06T00:39:25.667Z,47.17
2019-04-06T00:41:54.138Z,47.10
2019-04-06T00:44:22.626Z,49.67
2019-04-06T00:46:51.092Z,48.53
2019-04-06T00:49:19.534Z,50.37
2019-04-06T00:51:48.032Z,50.03
2019-04-06T00:54:17.203Z,49.63
2019-04-06T00:56:45.798Z,53.17
2019-04-06T00:59:14.233Z,52.67
2019-04-06T01:01:42.709Z,48.37
2019-04-06T01:04:11.262Z,47.10
2019-04-06T01:06:39.704Z,50.00
2019-04-06T01:09:10.248Z,42.37
2019-04-06T01:11:38.880Z,43.30
2019-04-06T01:14:07.285Z,40.47
2019-04-06T01:16:35.769Z,42.23
2019-04-06T01:19:04.249Z,42.70
2019-04-06T01:21:32.723Z,42.43
2019-04-06T01:24:01.173Z,35.27
2019-04-06T01:26:29.628Z,35.67
2019-04-06T01:28:58.094Z,41.87
2019-04-06T01:31:26.564Z,34.37
2019-04-06T01:33:55.038Z,37.97
2019-04-06T01:36:23.511Z,39.13
2019-04-06T01:38:52.812Z,36.20
2019-04-06T01:41:21.299Z,38.17
2019-04-06T01:43:49.760Z,41.37
2019-04-06T01:46:18.225Z,37.50
2019-04-06T01:48:46.650Z,33.30
2019-04-06T01:51:15.135Z,35.67
2019-04-06T01:53:43.586Z,32.77
2019-04-06T01:56:18.338Z,33.77
2019-04-06T01:58:42.241Z,34.93
2019-04-06T02:01:18.116Z,37.90
2019-04-06T02:03:46.565Z,41.50
2019-04-06T02:06:15.022Z,35.50
2019-04-06T02:08:43.556Z,36.63
2019-04-06T02:11:11.969Z,32.43
2019-04-06T02:13:40.418Z,36.60
2019-04-06T02:16:08.982Z,32.40
2019-04-06T02:18:37.419Z,33.03
2019-04-06T02:21:05.901Z,35.80
2019-04-06T02:23:34.461Z,36.23
2019-04-06T02:26:03.086Z,36.60
2019-04-06T02:28:31.542Z,33.70
2019-04-06T02:31:07.746Z,34.10
2019-04-06T02:33:43.762Z,36.23
2019-04-06T02:36:25.606Z,38.70
2019-04-06T02:39:11.804Z,42.97
2019-04-06T02:41:47.857Z,37.97
2019-04-06T02:44:16.335Z,36.17
2019-04-06T02:46:44.783Z,38.10
2019-04-06T02:49:13.264Z,39.17
2019-04-06T02:51:41.711Z,41.30
2019-04-06T02:54:10.181Z,37.23
2019-04-06T02:56:46.265Z,31.77
2019-04-06T02:59:08.831Z,41.53
2019-04-06T03:01:37.261Z,33.33
2019-04-06T03:04:05.704Z,34.60
2019-04-06T03:06:34.340Z,36.53
2019-04-06T03:09:03.939Z,37.97
2019-04-06T03:11:32.383Z,36.07
2019-04-06T03:14:01.093Z,30.70
2019-04-06T03:16:29.512Z,36.03
2019-04-06T03:18:57.953Z,37.67
2019-04-06T03:21:26.412Z,39.23
2019-04-06T03:23:54.867Z,39.50
2019-04-06T03:26:23.329Z,43.77
2019-04-06T03:28:51.789Z,38.20
2019-04-06T03:31:25.069Z,43.53
2019-04-06T03:33:50.989Z,38.87
2019-04-06T03:36:19.808Z,36.40
2019-04-06T03:38:48.278Z,33.43
2019-04-06T03:41:16.722Z,32.20
2019-04-06T03:43:45.369Z,32.53
2019-04-06T03:46:13.835Z,32.07
2019-04-06T03:48:42.318Z,34.20
2019-04-06T03:51:10.810Z,34.50
2019-04-06T03:53:39.187Z,29.93
2019-04-06T03:56:07.673Z,26.43
2019-04-06T03:58:36.130Z,33.77
2019-04-06T04:01:04.686Z,26.97
2019-04-06T04:03:33.152Z,27.20
2019-04-06T04:06:01.591Z,31.50
2019-04-06T04:08:30.094Z,26.80
2019-04-06T04:10:58.513Z,30.03
2019-04-06T04:13:26.985Z,25.30
2019-04-06T04:15:57.341Z,31.30
2019-04-06T04:18:26.042Z,34.63
2019-04-06T04:20:54.493Z,35.80
2019-04-06T04:23:23.140Z,34.10
2019-04-06T04:25:51.725Z,32.77
2019-04-06T04:28:20.165Z,33.97
2019-04-06T04:30:48.665Z,32.47
2019-04-06T04:33:17.339Z,32.90
2019-04-06T04:35:46.066Z,35.17
2019-04-06T04:38:14.662Z,29.70
2019-04-06T04:40:43.109Z,32.63
2019-04-06T04:43:11.586Z,26.03
2019-04-06T04:45:40.063Z,30.80
2019-04-06T04:48:08.519Z,29.53
2019-04-06T04:50:36.970Z,32.23
2019-04-06T04:53:05.448Z,27.97
2019-04-06T04:55:34.506Z,25.97
2019-04-06T04:58:03.164Z,30.63
2019-04-06T05:00:31.592Z,31.67
2019-04-06T05:03:00.105Z,33.80
2019-04-06T05:05:28.614Z,30.97
2019-04-06T05:07:57.107Z,26.53
2019-04-06T05:10:25.642Z,26.20
2019-04-06T05:12:54.055Z,28.43
2019-04-06T05:15:49.241Z,27.33
2019-04-06T05:18:17.698Z,28.03
2019-04-06T05:20:46.171Z,28.67
2019-04-06T05:23:14.596Z,27.43
2019-04-06T05:25:43.159Z,29.37
2019-04-06T05:28:11.571Z,27.97
2019-04-06T05:30:40.072Z,29.50
2019-04-06T05:33:08.477Z,32.70
2019-04-06T05:35:36.952Z,29.47
2019-04-06T05:38:05.449Z,31.33
2019-04-06T05:40:33.831Z,28.30
2019-04-06T05:43:02.331Z,34.00
2019-04-06T05:45:30.734Z,29.30
2019-04-06T05:47:59.216Z,31.30
2019-04-06T05:50:27.690Z,36.77
2019-04-06T05:52:56.154Z,41.60
2019-04-06T05:55:25.023Z,32.93
2019-04-06T05:58:03.440Z,29.93
2019-04-06T06:00:25.197Z,32.20
2019-04-06T06:02:53.599Z,33.80
2019-04-06T06:05:22.058Z,31.80
2019-04-06T06:07:50.521Z,46.77
2019-04-06T06:10:19.018Z,37.83
2019-04-06T06:12:47.501Z,30.30
2019-04-06T06:15:16.218Z,34.23
2019-04-06T06:17:44.703Z,33.37
2019-04-06T06:20:13.289Z,34.23
2019-04-06T06:22:41.759Z,35.03
2019-04-06T06:25:10.482Z,36.87
2019-04-06T06:27:38.938Z,39.80
2019-04-06T06:30:08.621Z,36.77
2019-04-06T06:32:37.080Z,35.57
2019-04-06T06:35:06.511Z,35.90
2019-04-06T06:37:35.009Z,38.40
2019-04-06T06:40:04.874Z,36.07
2019-04-06T06:42:33.327Z,40.57
2019-04-06T06:45:01.815Z,39.50
2019-04-06T06:47:31.126Z,39.77
2019-04-06T06:49:59.747Z,41.77
2019-04-06T06:52:28.427Z,36.73
2019-04-06T06:54:56.915Z,36.87
2019-04-06T06:57:25.388Z,40.00
2019-04-06T06:59:53.842Z,34.47
2019-04-06T07:02:22.319Z,36.73
2019-04-06T07:04:50.780Z,38.33
2019-04-06T07:07:19.247Z,36.73
2019-04-06T07:09:47.786Z,44.10
2019-04-06T07:12:16.317Z,37.10
2019-04-06T07:14:44.754Z,39.77
2019-04-06T07:17:13.317Z,39.30
2019-04-06T07:19:41.791Z,37.83
2019-04-06T07:22:10.670Z,48.73
2019-04-06T07:24:39.113Z,46.17
2019-04-06T07:27:07.576Z,37.03
2019-04-06T07:29:36.025Z,39.30
2019-04-06T07:32:04.568Z,35.03
2019-04-06T07:34:33.023Z,33.03
2019-04-06T07:37:01.514Z,45.60
2019-04-06T07:39:30.144Z,41.80
2019-04-06T07:41:58.601Z,47.70
2019-04-06T07:44:27.083Z,35.20
2019-04-06T07:46:55.753Z,33.47
2019-04-06T07:49:24.229Z,47.37
2019-04-06T07:51:52.692Z,36.53
2019-04-06T07:54:21.192Z,38.93
2019-04-06T07:56:49.647Z,43.87
2019-04-06T07:59:18.136Z,40.43
2019-04-06T08:01:48.377Z,37.27
2019-04-06T08:04:16.999Z,33.73
2019-04-06T08:06:45.463Z,37.70
2019-04-06T08:09:13.898Z,43.90
2019-04-06T08:11:42.456Z,38.60
2019-04-06T08:14:10.910Z,35.60
2019-04-06T08:16:39.388Z,36.70
2019-04-06T08:19:07.835Z,44.37
2019-04-06T08:21:36.422Z,34.43
2019-04-06T08:24:04.897Z,39.47
2019-04-06T08:26:33.415Z,38.40
2019-04-06T08:29:02.734Z,37.10
2019-04-06T08:31:31.251Z,36.03
2019-04-06T08:33:59.752Z,39.53
2019-04-06T08:36:28.170Z,43.13
2019-04-06T08:38:57.104Z,39.37
2019-04-06T08:41:25.561Z,34.03
2019-04-06T08:43:54.040Z,36.07
2019-04-06T08:46:22.504Z,41.57
2019-04-06T08:48:50.975Z,42.77
2019-04-06T08:51:19.688Z,34.63
2019-04-06T08:53:48.208Z,36.97
2019-04-06T08:56:16.695Z,33.37
2019-04-06T08:58:45.163Z,44.23
2019-04-06T09:01:13.634Z,44.27
2019-04-06T09:03:42.078Z,35.37
2019-04-06T09:06:10.603Z,38.43
2019-04-06T09:08:39.018Z,37.77
2019-04-06T09:11:07.508Z,37.90
2019-04-06T09:13:36.006Z,41.90
2019-04-06T09:16:04.487Z,41.53
2019-04-06T09:18:32.930Z,35.10
2019-04-06T09:21:01.392Z,33.83
2019-04-06T09:23:30.217Z,34.23
2019-04-06T09:25:58.806Z,43.03
2019-04-06T09:28:27.337Z,35.97
2019-04-06T09:30:55.728Z,36.03
2019-04-06T09:33:24.223Z,35.47
2019-04-06T09:35:52.683Z,35.43
2019-04-06T09:38:21.161Z,41.83
2019-04-06T09:40:50.917Z,33.13
2019-04-06T09:43:19.449Z,30.27
2019-04-06T09:46:01.447Z,33.13
2019-04-06T09:48:48.097Z,35.00
2019-04-06T09:51:27.063Z,30.53
2019-04-06T09:54:13.457Z,29.90
2019-04-06T09:56:52.304Z,29.43
2019-04-06T09:59:37.111Z,31.40
2019-04-06T10:02:19.291Z,30.57
2019-04-06T10:05:01.385Z,31.10
2019-04-06T10:07:31.507Z,31.23
2019-04-06T10:10:04.317Z,32.90
2019-04-06T10:12:49.828Z,27.07
2019-04-06T10:15:37.966Z,33.67
2019-04-06T10:18:24.489Z,29.90
2019-04-06T10:21:11.107Z,28.57
2019-04-06T10:23:56.492Z,27.70
2019-04-06T10:26:26.612Z,28.87
2019-04-06T10:28:59.623Z,30.17
2019-04-06T10:31:45.905Z,26.67
2019-04-06T10:34:31.637Z,26.27
2019-04-06T10:37:17.912Z,28.23
2019-04-06T10:39:50.672Z,22.33
2019-04-06T10:42:29.982Z,27.63
2019-04-06T10:45:05.907Z,27.80
2019-04-06T10:47:36.029Z,28.20
2019-04-06T10:50:07.162Z,29.87
2019-04-06T10:52:55.144Z,26.43
2019-04-06T10:55:25.231Z,27.13
2019-04-06T10:57:59.186Z,33.50
2019-04-06T11:00:31.841Z,22.97
2019-04-06T11:03:03.074Z,24.87
2019-04-06T11:05:33.208Z,25.80
2019-04-06T11:08:19.535Z,23.70
2019-04-06T11:11:05.925Z,27.63
2019-04-06T11:13:45.058Z,20.90
2019-04-06T11:16:18.271Z,28.60
2019-04-06T11:19:06.494Z,24.60
2019-04-06T11:21:36.813Z,29.00
2019-04-06T11:24:22.007Z,26.90
2019-04-06T11:27:08.291Z,30.93
2019-04-06T11:29:41.384Z,28.70
2019-04-06T11:32:14.477Z,27.37
2019-04-06T11:34:53.795Z,27.50
2019-04-06T11:37:26.437Z,23.13
2019-04-06T11:39:56.545Z,23.40
2019-04-06T11:42:42.644Z,27.93
2019-04-06T11:45:29.106Z,29.97
2019-04-06T11:48:02.200Z,29.73
2019-04-06T11:50:48.365Z,29.67
2019-04-06T11:53:18.529Z,23.57
2019-04-06T11:56:05.114Z,30.93
2019-04-06T11:58:41.087Z,25.80
2019-04-06T12:01:27.618Z,25.53
2019-04-06T12:04:10.249Z,28.60
2019-04-06T12:06:40.428Z,23.97
2019-04-06T12:09:10.549Z,30.30
2019-04-06T12:11:40.761Z,25.00
2019-04-06T12:14:11.018Z,28.20
2019-04-06T12:16:41.202Z,30.70
2019-04-06T12:19:16.789Z,26.47
2019-04-06T12:22:03.324Z,29.77
2019-04-06T12:24:36.011Z,20.07
2019-04-06T12:27:11.791Z,21.10
2019-04-06T12:29:41.881Z,27.30
2019-04-06T12:32:17.992Z,24.90
2019-04-06T12:35:04.306Z,26.93
2019-04-06T12:37:34.421Z,28.33
2019-04-06T12:40:04.661Z,29.80
2019-04-06T12:42:43.500Z,25.17
2019-04-06T12:45:19.346Z,24.33
2019-04-06T12:47:51.870Z,26.93
2019-04-06T12:50:37.929Z,26.60
2019-04-06T12:53:24.171Z,24.27
2019-04-06T12:55:54.364Z,28.03
2019-04-06T12:58:39.634Z,30.43
2019-04-06T13:01:12.451Z,29.80
2019-04-06T13:03:45.584Z,33.63
2019-04-06T13:06:27.734Z,29.10
2019-04-06T13:09:10.142Z,22.80
2019-04-06T13:11:46.154Z,22.47
2019-04-06T13:14:22.389Z,25.40
2019-04-06T13:17:08.815Z,20.37
2019-04-06T13:19:38.901Z,25.00
2019-04-06T13:22:18.084Z,22.37
2019-04-06T13:25:06.534Z,25.17
2019-04-06T13:27:45.379Z,17.73
2019-04-06T13:30:34.221Z,22.20
2019-04-06T13:33:19.365Z,21.63
2019-04-06T13:36:05.616Z,21.87
2019-04-06T13:38:47.827Z,22.90
2019-04-06T13:41:20.836Z,19.77
2019-04-06T13:43:51.225Z,20.33
2019-04-06T13:46:37.601Z,21.17
2019-04-06T13:49:07.971Z,15.73
2019-04-06T13:51:43.987Z,18.97
2019-04-06T13:54:32.484Z,16.03
2019-04-06T13:57:08.318Z,23.03
2019-04-06T13:59:41.341Z,17.80
2019-04-06T14:02:27.993Z,25.10
2019-04-06T14:05:10.067Z,20.07
2019-04-06T14:07:43.063Z,26.10
2019-04-06T14:10:19.806Z,26.10
2019-04-06T14:12:50.194Z,23.07
2019-04-06T14:15:21.067Z,20.60
2019-04-06T14:17:56.676Z,16.43
2019-04-06T14:20:42.041Z,24.97
2019-04-06T14:23:14.867Z,20.33
2019-04-06T14:25:44.951Z,20.17
2019-04-06T14:28:17.633Z,19.13
2019-04-06T14:31:02.546Z,21.30
2019-04-06T14:33:44.542Z,20.40
2019-04-06T14:36:14.659Z,20.63
2019-04-06T14:39:01.041Z,18.07
2019-04-06T14:41:31.161Z,17.43
2019-04-06T14:44:07.544Z,15.73
2019-04-06T14:46:37.734Z,19.50
2019-04-06T14:49:30.850Z,15.17
2019-04-06T14:52:02.121Z,20.63
2019-04-06T14:54:47.288Z,19.47
2019-04-06T14:57:26.347Z,20.70
2019-04-06T15:00:09.019Z,19.90
2019-04-06T15:02:48.237Z,16.87
2019-04-06T15:05:25.672Z,20.43
2019-04-06T15:08:01.484Z,20.50
2019-04-06T15:10:34.247Z,18.13
2019-04-06T15:13:04.530Z,16.53
2019-04-06T15:15:34.707Z,18.20
2019-04-06T15:18:05.007Z,15.63
2019-04-06T15:20:35.209Z,15.77
2019-04-06T15:23:21.354Z,13.43
2019-04-06T15:25:57.099Z,16.77
2019-04-06T15:28:33.178Z,16.13
2019-04-06T15:31:05.997Z,16.07
2019-04-06T15:33:50.891Z,15.07
2019-04-06T15:36:20.986Z,15.07
2019-04-06T15:39:07.588Z,19.00
2019-04-06T15:41:40.395Z,17.97
2019-04-06T15:44:26.725Z,20.50
2019-04-06T15:47:13.560Z,14.60
2019-04-06T15:49:46.528Z,23.50
2019-04-06T15:52:19.409Z,16.00
2019-04-06T15:55:01.763Z,21.13
2019-04-06T15:57:32.100Z,18.33
2019-04-06T16:00:18.369Z,14.77
2019-04-06T16:02:51.201Z,16.83
2019-04-06T16:05:27.306Z,13.87
2019-04-06T16:08:06.622Z,14.93
2019-04-06T16:10:53.027Z,16.43
2019-04-06T16:13:23.505Z,20.23
2019-04-06T16:15:53.573Z,17.97
2019-04-06T16:18:25.667Z,19.07
2019-04-06T16:20:59.195Z,24.40
2019-04-06T16:23:29.706Z,22.90
2019-04-06T16:25:59.800Z,21.67
2019-04-06T16:28:46.593Z,20.73
2019-04-06T16:31:16.820Z,17.10
2019-04-06T16:33:52.962Z,19.60
2019-04-06T16:36:26.038Z,38.23
2019-04-06T16:38:56.146Z,16.07
2019-04-06T16:41:26.586Z,15.20
2019-04-06T16:44:02.519Z,24.90
2019-04-06T16:46:52.127Z,25.17
2019-04-06T16:49:28.261Z,18.97
2019-04-06T16:51:58.343Z,15.90
2019-04-06T16:54:28.775Z,15.87
2019-04-06T16:56:58.969Z,15.53
2019-04-06T16:59:38.229Z,20.70
2019-04-06T17:02:08.347Z,18.07
2019-04-06T17:04:54.694Z,15.53
2019-04-06T17:07:41.074Z,16.07
2019-04-06T17:10:14.118Z,21.93
2019-04-06T17:12:50.337Z,19.07
2019-04-06T17:15:20.529Z,25.80
2019-04-06T17:17:53.425Z,20.57
2019-04-06T17:20:32.439Z,27.67
2019-04-06T17:23:05.468Z,24.47
2019-04-06T17:25:35.627Z,19.80
2019-04-06T17:28:08.678Z,25.97
2019-04-06T17:30:38.797Z,19.40
2019-04-06T17:33:21.015Z,26.83
2019-04-06T17:35:57.300Z,23.37
2019-04-06T17:38:33.377Z,16.43
2019-04-06T17:41:03.940Z,27.93
2019-04-06T17:43:47.402Z,22.00
2019-04-06T17:46:17.806Z,26.43
2019-04-06T17:49:06.645Z,31.93
2019-04-06T17:51:46.369Z,20.90
2019-04-06T17:54:28.105Z,27.57
2019-04-06T17:57:00.888Z,22.07
2019-04-06T17:59:31.252Z,28.23
2019-04-06T18:02:04.720Z,27.70
2019-04-06T18:04:50.069Z,28.97
2019-04-06T18:07:20.207Z,42.90
2019-04-06T18:09:59.611Z,24.80
2019-04-06T18:12:38.438Z,26.10
2019-04-06T18:15:08.164Z,18.13
2019-04-06T18:17:36.654Z,21.27
2019-04-06T18:20:08.535Z,21.40
2019-04-06T18:22:37.029Z,23.10
2019-04-06T18:25:06.551Z,22.23
2019-04-06T18:27:35.456Z,23.30
2019-04-06T18:30:06.838Z,23.40
2019-04-06T18:32:59.699Z,19.33
2019-04-06T18:35:22.317Z,25.77
2019-04-06T18:38:04.753Z,18.13
2019-04-06T18:40:33.330Z,15.53
2019-04-06T18:43:01.837Z,22.70
2019-04-06T18:45:31.299Z,19.43
2019-04-06T18:47:59.795Z,19.60
2019-04-06T18:50:34.151Z,22.87
2019-04-06T18:52:58.498Z,24.63
2019-04-06T18:55:27.104Z,22.77
2019-04-06T18:57:57.061Z,20.10
2019-04-06T19:00:26.378Z,18.03
2019-04-06T19:02:54.867Z,17.27
2019-04-06T19:05:23.327Z,20.63
2019-04-06T19:07:52.044Z,23.03
2019-04-06T19:10:20.569Z,24.90
2019-04-06T19:12:49.477Z,23.30
2019-04-06T19:15:18.405Z,17.73
2019-04-06T19:17:47.461Z,21.47
2019-04-06T19:20:16.097Z,19.97
2019-04-06T19:22:44.548Z,23.07
2019-04-06T19:25:13.018Z,19.57
2019-04-06T19:27:41.471Z,22.73
2019-04-06T19:30:11.469Z,18.23
2019-04-06T19:32:39.937Z,21.70
2019-04-06T19:35:08.958Z,19.00
2019-04-06T19:37:37.426Z,23.10
2019-04-06T19:40:07.323Z,23.63
2019-04-06T19:42:36.376Z,21.37
2019-04-06T19:45:08.158Z,25.63
2019-04-06T19:47:37.054Z,53.03
2019-04-06T19:50:06.794Z,29.67
2019-04-06T19:52:35.845Z,21.73
2019-04-06T19:55:07.308Z,29.77
2019-04-06T19:57:36.146Z,22.60
2019-04-06T20:00:08.056Z,18.67
2019-04-06T20:02:36.935Z,29.63
2019-04-06T20:05:07.415Z,26.00
2019-04-06T20:07:35.873Z,19.70
2019-04-06T20:10:07.189Z,26.30
2019-04-06T20:12:36.123Z,19.53
2019-04-06T20:15:07.649Z,19.17
2019-04-06T20:17:36.116Z,21.77
2019-04-06T20:20:08.802Z,20.23
2019-04-06T20:22:37.625Z,19.27
2019-04-06T20:25:07.432Z,25.33
2019-04-06T20:27:36.440Z,20.10
2019-04-06T20:30:09.992Z,20.50
2019-04-06T20:32:38.463Z,23.83
2019-04-06T20:35:09.279Z,27.23
2019-04-06T20:37:37.852Z,22.83
2019-04-06T20:40:10.275Z,22.03
2019-04-06T20:42:39.370Z,24.93
2019-04-06T20:45:08.343Z,29.13
2019-04-06T20:47:37.031Z,27.60
2019-04-06T20:50:07.303Z,25.30
2019-04-06T20:52:36.089Z,48.87
2019-04-06T20:55:06.783Z,21.17
2019-04-06T20:57:35.260Z,22.33
2019-04-06T21:00:05.363Z,21.63
2019-04-06T21:02:34.033Z,26.03
2019-04-06T21:05:03.035Z,27.13
2019-04-06T21:07:31.606Z,28.43
2019-04-06T21:10:00.638Z,29.70
2019-04-06T21:12:29.256Z,29.30
2019-04-06T21:14:57.687Z,26.10
2019-04-06T21:17:26.610Z,25.37
2019-04-06T21:19:55.103Z,26.40
2019-04-06T21:22:23.914Z,28.50
2019-04-06T21:24:53.164Z,23.27
2019-04-06T21:27:21.744Z,25.33
2019-04-06T21:29:50.737Z,21.70
2019-04-06T21:32:19.323Z,29.07
2019-04-06T21:34:48.385Z,21.90
2019-04-06T21:37:17.016Z,26.03
2019-04-06T21:39:45.462Z,26.93
2019-04-06T21:42:14.561Z,25.57
2019-04-06T21:44:43.464Z,30.70
2019-04-06T21:47:12.170Z,26.13
2019-04-06T21:49:40.612Z,33.23
2019-04-06T21:52:09.068Z,26.70
2019-04-06T21:54:37.568Z,27.93
2019-04-06T21:57:06.221Z,21.87
2019-04-06T21:59:34.684Z,23.63
2019-04-06T22:02:03.368Z,27.93
2019-04-06T22:04:31.878Z,27.73
2019-04-06T22:07:00.922Z,25.93
2019-04-06T22:09:29.757Z,33.20
2019-04-06T22:11:58.473Z,34.27
2019-04-06T22:14:27.058Z,28.43
2019-04-06T22:16:56.031Z,26.73
2019-04-06T22:19:25.252Z,22.50
2019-04-06T22:21:54.334Z,23.50
2019-04-06T22:24:22.771Z,24.87
2019-04-06T22:26:51.859Z,18.20
2019-04-06T22:29:20.714Z,23.27
2019-04-06T22:31:49.237Z,22.67
2019-04-06T22:34:17.665Z,27.53
2019-04-06T22:36:46.699Z,21.30
2019-04-06T22:39:15.409Z,27.73
2019-04-06T22:41:43.914Z,32.67
2019-04-06T22:44:12.366Z,26.67
2019-04-06T22:46:40.848Z,24.03
2019-04-06T22:49:09.336Z,29.80
2019-04-06T22:51:38.003Z,28.17
2019-04-06T22:54:06.807Z,27.93
2019-04-06T22:56:35.408Z,29.93
2019-04-06T22:59:03.860Z,28.53
2019-04-06T23:01:34.615Z,21.10
2019-04-06T23:04:04.899Z,24.80
2019-04-06T23:06:35.419Z,25.20
2019-04-06T23:09:05.555Z,33.83
2019-04-06T23:11:34.349Z,24.23
2019-04-06T23:14:03.051Z,23.97
2019-04-06T23:16:31.550Z,24.97
2019-04-06T23:19:00.328Z,28.63
2019-04-06T23:21:29.472Z,25.57
2019-04-06T23:23:58.104Z,22.93
2019-04-06T23:26:26.656Z,28.73
2019-04-06T23:28:55.112Z,26.70
2019-04-06T23:31:23.541Z,24.97
2019-04-06T23:33:52.016Z,20.93
2019-04-06T23:36:20.484Z,24.50
2019-04-06T23:38:48.973Z,25.53
2019-04-06T23:41:17.497Z,32.10
2019-04-06T23:43:45.951Z,28.50
2019-04-06T23:46:14.414Z,27.13
2019-04-06T23:48:42.903Z,25.43
2019-04-06T23:51:11.337Z,24.90
2019-04-06T23:53:39.942Z,27.60
2019-04-06T23:56:09.088Z,33.93
2019-04-06T23:58:37.564Z,33.87
